createdAt,value
2022-12-18T00:01:53.504Z,101635.88
2022-12-18T00:04:44.830Z,101730.72
2022-12-18T00:07:31.802Z,101732.56
2022-12-18T00:10:18.846Z,101730.00
2022-12-18T00:13:09.873Z,101713.56
2022-12-18T00:15:58.745Z,101710.13
2022-12-18T00:18:45.695Z,101717.13
2022-12-18T00:21:34.179Z,101571.63
2022-12-18T00:24:21.419Z,101709.47
2022-12-18T00:27:08.607Z,101697.44
2022-12-18T00:29:55.477Z,101687.13
2022-12-18T00:32:42.501Z,101689.72
2022-12-18T00:35:29.549Z,101668.69
2022-12-18T00:38:16.515Z,101689.78
2022-12-18T00:41:04.936Z,101669.63
2022-12-18T00:43:51.928Z,101693.28
2022-12-18T00:46:39.042Z,101689.03
2022-12-18T00:49:26.227Z,101689.91
2022-12-18T00:52:15.940Z,101693.41
2022-12-18T00:55:06.263Z,101682.19
2022-12-18T00:57:53.666Z,101681.28
2022-12-18T01:00:28.922Z,101689.09
2022-12-18T01:03:15.890Z,101686.56
2022-12-18T01:06:04.491Z,101569.13
2022-12-18T01:08:51.392Z,101633.19
2022-12-18T01:11:41.067Z,101679.75
2022-12-18T01:14:28.011Z,101666.00
2022-12-18T01:17:14.907Z,101674.69
2022-12-18T01:20:01.969Z,101668.66
2022-12-18T01:22:48.889Z,101662.63
2022-12-18T01:25:36.087Z,101648.88
2022-12-18T01:28:23.336Z,101651.50
2022-12-18T01:31:10.221Z,101642.91
2022-12-18T01:33:57.074Z,101650.69
2022-12-18T01:36:46.841Z,101664.56
2022-12-18T01:39:35.942Z,101682.72
2022-12-18T01:42:41.635Z,101660.03
2022-12-18T01:45:37.316Z,101675.94
2022-12-18T01:48:29.075Z,101683.72
2022-12-18T01:51:16.024Z,101663.59
2022-12-18T01:54:05.050Z,101663.88
2022-12-18T01:56:32.268Z,101669.97
2022-12-18T01:59:09.151Z,101663.09
2022-12-18T02:01:39.079Z,101573.72
2022-12-18T02:04:26.907Z,101638.97
2022-12-18T02:07:06.457Z,101642.47
2022-12-18T02:09:42.823Z,101639.03
2022-12-18T02:12:25.412Z,101646.00
2022-12-18T02:14:59.949Z,101655.56
2022-12-18T02:17:37.704Z,101654.63
2022-12-18T02:20:17.619Z,101658.22
2022-12-18T02:23:12.637Z,101656.53
2022-12-18T02:26:13.989Z,101643.59
2022-12-18T02:29:10.319Z,101566.50
2022-12-18T02:32:03.975Z,101625.34
2022-12-18T02:34:53.941Z,101629.94
2022-12-18T02:37:44.205Z,101636.00
2022-12-18T02:40:33.517Z,101631.69
2022-12-18T02:43:35.650Z,101620.56
2022-12-18T02:46:48.520Z,101615.38
2022-12-18T02:49:45.157Z,101639.59
2022-12-18T02:52:55.482Z,101621.44
2022-12-18T02:55:48.761Z,101622.34
2022-12-18T02:58:47.063Z,101625.84
2022-12-18T03:02:05.838Z,101621.53
2022-12-18T03:05:04.590Z,101619.88
2022-12-18T03:08:04.482Z,101622.50
2022-12-18T03:11:03.422Z,101619.09
2022-12-18T03:13:54.688Z,101610.53
2022-12-18T03:16:48.532Z,101579.00
2022-12-18T03:19:39.388Z,101609.75
2022-12-18T03:22:28.650Z,101608.06
2022-12-18T03:25:17.859Z,101612.44
2022-12-18T03:28:12.426Z,101597.81
2022-12-18T03:31:02.637Z,101548.63
2022-12-18T03:33:59.067Z,101592.69
2022-12-18T03:36:53.608Z,101580.63
2022-12-18T03:39:42.817Z,101587.59
2022-12-18T03:42:44.299Z,101576.38
2022-12-18T03:45:40.782Z,101577.28
2022-12-18T03:48:41.949Z,101564.28
2022-12-18T03:51:39.354Z,101567.00
2022-12-18T03:54:30.077Z,101567.03
2022-12-18T03:57:39.415Z,101569.66
2022-12-18T04:00:33.684Z,101561.06
2022-12-18T04:03:28.232Z,101561.97
2022-12-18T04:06:18.895Z,101558.56
2022-12-18T04:09:07.643Z,101560.34
2022-12-18T04:11:59.087Z,101533.28
2022-12-18T04:14:46.224Z,101555.22
2022-12-18T04:17:33.824Z,101538.78
2022-12-18T04:20:21.653Z,101537.06
2022-12-18T04:23:09.004Z,101522.28
2022-12-18T04:25:57.084Z,101526.84
2022-12-18T04:28:58.719Z,101473.56
2022-12-18T04:31:45.947Z,101525.19
2022-12-18T04:34:33.202Z,101429.00
2022-12-18T04:37:20.340Z,101502.72
2022-12-18T04:40:09.900Z,101476.63
2022-12-18T04:43:01.890Z,101484.66
2022-12-18T04:45:49.022Z,101471.69
2022-12-18T04:48:35.910Z,101465.72
2022-12-18T04:51:26.574Z,101462.28
2022-12-18T04:54:14.440Z,101461.41
2022-12-18T04:57:01.546Z,101454.53
2022-12-18T04:59:48.595Z,101457.16
2022-12-18T05:02:35.641Z,101458.06
2022-12-18T05:05:22.832Z,101456.41
2022-12-18T05:08:09.738Z,101333.28
2022-12-18T05:10:57.696Z,101460.78
2022-12-18T05:13:44.821Z,101459.09
2022-12-18T05:16:32.929Z,101378.81
2022-12-18T05:19:20.041Z,101440.97
2022-12-18T05:22:07.003Z,101440.13
2022-12-18T05:24:54.320Z,101434.97
2022-12-18T05:27:41.275Z,101422.88
2022-12-18T05:30:29.222Z,101434.13
2022-12-18T05:33:16.149Z,101412.31
2022-12-18T05:36:03.824Z,101393.91
2022-12-18T05:38:53.188Z,101422.97
2022-12-18T05:41:40.293Z,101382.78
2022-12-18T05:44:28.488Z,101429.97
2022-12-18T05:47:15.502Z,101429.09
2022-12-18T05:50:02.337Z,101426.50
2022-12-18T05:52:49.344Z,101427.41
2022-12-18T05:55:36.231Z,101419.66
2022-12-18T05:58:24.344Z,101349.81
2022-12-18T06:01:11.182Z,101422.28
2022-12-18T06:03:59.811Z,101417.09
2022-12-18T06:06:48.977Z,101418.88
2022-12-18T06:09:35.994Z,101411.94
2022-12-18T06:12:22.851Z,101405.84
2022-12-18T06:15:09.975Z,101403.28
2022-12-18T06:17:57.532Z,101400.69
2022-12-18T06:20:44.666Z,101394.59
2022-12-18T06:23:31.560Z,101392.91
2022-12-18T06:26:21.076Z,101390.28
2022-12-18T06:29:11.562Z,101385.97
2022-12-18T06:31:58.850Z,101395.53
2022-12-18T06:34:45.697Z,101393.78
2022-12-18T06:37:32.670Z,101386.00
2022-12-18T06:40:19.470Z,101385.13
2022-12-18T06:43:06.575Z,101379.00
2022-12-18T06:45:53.599Z,101386.91
2022-12-18T06:48:41.098Z,101382.59
2022-12-18T06:51:28.041Z,101368.66
2022-12-18T06:54:15.147Z,101374.78
2022-12-18T06:57:02.100Z,101367.81
2022-12-18T06:59:49.046Z,101362.66
2022-12-18T07:02:36.482Z,101367.03
2022-12-18T07:05:23.827Z,101366.16
2022-12-18T07:08:10.695Z,101356.66
2022-12-18T07:11:05.027Z,101372.25
2022-12-18T07:13:52.273Z,101364.50
2022-12-18T07:16:41.498Z,101374.00
2022-12-18T07:19:28.503Z,101361.91
2022-12-18T07:22:16.243Z,101342.84
2022-12-18T07:25:03.194Z,101339.34
2022-12-18T07:27:50.084Z,101318.41
2022-12-18T07:30:37.309Z,101321.97
2022-12-18T07:33:24.291Z,101323.75
2022-12-18T07:36:11.333Z,101283.50
2022-12-18T07:38:58.751Z,101329.00
2022-12-18T07:41:47.016Z,101329.03
2022-12-18T07:44:36.470Z,101326.47
2022-12-18T07:47:23.460Z,101326.47
2022-12-18T07:50:10.484Z,101300.34
2022-12-18T07:52:57.342Z,101323.06
2022-12-18T07:56:11.219Z,101310.94
2022-12-18T07:58:51.836Z,101292.66
2022-12-18T08:01:38.955Z,101306.66
2022-12-18T08:04:26.019Z,101259.56
2022-12-18T08:07:13.144Z,101304.09
2022-12-18T08:10:00.006Z,101295.47
2022-12-18T08:12:46.996Z,101284.22
2022-12-18T08:15:34.043Z,101281.63
2022-12-18T08:18:21.071Z,101267.66
2022-12-18T08:21:07.927Z,101280.78
2022-12-18T08:23:54.917Z,101213.66
2022-12-18T08:26:45.582Z,101267.81
2022-12-18T08:29:38.847Z,101262.63
2022-12-18T08:32:26.026Z,101260.06
2022-12-18T08:35:13.299Z,101132.00
2022-12-18T08:38:00.580Z,101130.25
2022-12-18T08:40:47.619Z,101200.06
2022-12-18T08:43:33.193Z,101228.94
2022-12-18T08:46:20.320Z,101233.34
2022-12-18T08:49:07.874Z,101226.41
2022-12-18T08:51:55.626Z,101228.19
2022-12-18T08:54:42.461Z,101220.41
2022-12-18T08:57:29.384Z,101203.88
2022-12-18T09:00:16.317Z,101227.34
2022-12-18T09:03:04.053Z,101220.44
2022-12-18T09:05:51.607Z,101222.19
2022-12-18T09:08:39.076Z,101217.00
2022-12-18T09:11:34.062Z,101212.72
2022-12-18T09:14:22.305Z,101182.28
2022-12-18T09:17:09.282Z,101207.56
2022-12-18T09:19:56.355Z,101204.97
2022-12-18T09:22:43.357Z,101204.13
2022-12-18T09:25:30.507Z,101205.03
2022-12-18T09:28:17.348Z,101196.34
2022-12-18T09:31:09.997Z,101198.13
2022-12-18T09:33:57.323Z,101187.75
2022-12-18T09:36:25.136Z,101185.16
2022-12-18T09:38:52.306Z,101180.84
2022-12-18T09:41:47.091Z,101180.00
2022-12-18T09:44:55.187Z,101170.50
2022-12-18T09:48:00.302Z,101171.34
2022-12-18T09:50:55.767Z,101162.72
2022-12-18T09:53:47.777Z,101159.25
2022-12-18T09:56:40.311Z,101134.88
2022-12-18T09:59:33.507Z,101155.81
2022-12-18T10:02:20.615Z,101132.38
2022-12-18T10:05:24.673Z,101115.84
2022-12-18T10:08:20.268Z,101137.66
2022-12-18T10:11:11.964Z,101126.38
2022-12-18T10:14:05.567Z,101118.59
2022-12-18T10:17:12.833Z,101116.00
2022-12-18T10:20:19.798Z,101118.63
2022-12-18T10:23:01.147Z,101113.41
2022-12-18T10:25:52.920Z,101116.91
2022-12-18T10:28:41.741Z,101096.06
2022-12-18T10:31:37.652Z,101094.34
2022-12-18T10:34:24.718Z,101103.94
2022-12-18T10:37:11.631Z,101095.25
2022-12-18T10:39:58.694Z,101093.53
2022-12-18T10:42:45.475Z,101087.44
2022-12-18T10:45:35.803Z,101072.69
2022-12-18T10:48:22.712Z,101079.63
2022-12-18T10:51:13.503Z,101085.75
2022-12-18T10:54:02.994Z,101066.63
2022-12-18T10:56:54.447Z,101071.00
2022-12-18T10:59:41.279Z,101071.88
2022-12-18T11:02:58.951Z,101061.44
2022-12-18T11:05:54.660Z,101071.03
2022-12-18T11:08:43.044Z,101053.66
2022-12-18T11:11:44.719Z,101064.09
2022-12-18T11:14:43.579Z,101055.41
2022-12-18T11:17:50.592Z,101051.06
2022-12-18T11:20:47.120Z,101047.63
2022-12-18T11:23:34.548Z,101057.16
2022-12-18T11:26:25.024Z,101032.81
2022-12-18T11:29:28.328Z,101041.53
2022-12-18T11:32:34.080Z,101033.72
2022-12-18T11:35:44.568Z,101043.31
2022-12-18T11:38:45.384Z,101032.91
2022-12-18T11:41:55.619Z,101028.53
2022-12-18T11:45:02.421Z,100875.56
2022-12-18T11:48:00.126Z,101027.69
2022-12-18T11:51:27.341Z,101030.31
2022-12-18T11:54:14.443Z,101024.22
2022-12-18T11:57:10.019Z,100970.28
2022-12-18T12:00:11.437Z,101023.34
2022-12-18T12:03:16.377Z,101027.69
2022-12-18T12:06:41.324Z,101015.50
2022-12-18T12:09:43.605Z,101015.50
2022-12-18T12:12:52.700Z,101006.84
2022-12-18T12:16:07.817Z,101011.19
2022-12-18T12:19:12.615Z,101004.25
2022-12-18T12:22:02.824Z,100995.53
2022-12-18T12:25:10.792Z,100988.59
2022-12-18T16:13:26.531Z,100912.56
2022-12-18T16:15:54.018Z,100902.97
2022-12-18T16:18:21.092Z,100905.59
2022-12-18T16:21:08.060Z,100911.66
2022-12-18T16:23:54.882Z,100921.25
2022-12-18T16:26:42.158Z,100923.00
2022-12-18T16:29:29.951Z,100934.34
2022-12-18T16:32:21.826Z,100923.88
2022-12-18T16:35:08.974Z,100926.50
2022-12-18T16:37:56.790Z,100922.19
2022-12-18T16:40:43.604Z,100936.97
2022-12-18T16:43:31.152Z,100867.53
2022-12-18T16:46:19.975Z,100930.88
2022-12-18T16:49:07.295Z,100929.19
2022-12-18T16:51:54.528Z,100932.63
2022-12-18T16:54:41.601Z,100935.22
2022-12-18T16:57:33.082Z,100936.13
2022-12-18T17:00:19.938Z,100934.38
2022-12-18T17:03:06.923Z,100930.91
2022-12-18T17:05:54.882Z,100834.59
2022-12-18T17:08:41.701Z,100935.25
2022-12-18T17:11:29.152Z,100940.50
2022-12-18T17:14:16.458Z,100931.81
2022-12-18T17:16:43.719Z,100900.56
2022-12-18T17:19:16.767Z,100901.44
2022-12-18T17:21:45.806Z,100940.50
2022-12-18T17:24:35.092Z,100933.56
2022-12-18T17:27:23.364Z,100937.03
2022-12-18T17:29:50.256Z,100939.63
2022-12-18T17:32:37.896Z,100934.44
2022-12-18T17:35:25.281Z,100785.19
2022-12-18T17:38:12.286Z,100970.06
2022-12-18T17:40:59.374Z,100931.03
2022-12-18T17:43:46.354Z,100979.63
2022-12-18T17:46:34.931Z,100980.50
2022-12-18T17:49:23.251Z,100982.22
2022-12-18T17:52:10.100Z,100996.16
2022-12-18T17:54:57.447Z,100997.88
2022-12-18T17:57:44.334Z,101002.22
2022-12-18T18:00:31.855Z,101002.22
2022-12-18T18:03:18.950Z,100994.38
2022-12-18T18:06:06.027Z,100957.00
2022-12-18T18:08:54.782Z,100990.84
2022-12-18T18:11:43.253Z,100990.00
2022-12-18T18:14:36.326Z,100996.06
2022-12-18T18:17:23.379Z,101004.78
2022-12-18T18:20:10.161Z,101009.13
2022-12-18T18:22:57.286Z,101011.72
2022-12-18T18:25:44.513Z,101020.44
2022-12-18T18:28:31.472Z,101024.78
2022-12-18T18:31:18.672Z,101000.44
2022-12-18T18:34:05.836Z,101030.84
2022-12-18T18:36:53.033Z,101029.97
2022-12-18T18:39:40.440Z,101039.56
2022-12-18T18:42:27.360Z,101039.56
2022-12-18T18:45:14.292Z,101040.41
2022-12-18T18:48:01.177Z,101002.25
2022-12-18T18:50:48.107Z,101054.38
2022-12-18T18:53:35.063Z,101062.22
2022-12-18T18:59:31.308Z,101071.78
2022-12-18T19:02:00.604Z,101036.19
2022-12-18T19:04:32.307Z,101049.22
2022-12-18T19:06:59.222Z,101086.59
2022-12-18T19:09:26.749Z,101092.66
2022-12-18T19:12:12.359Z,101090.06
2022-12-18T19:14:39.323Z,101090.91
2022-12-18T19:17:29.666Z,101054.44
2022-12-18T19:20:17.662Z,101030.13
2022-12-18T19:23:04.558Z,101116.19
2022-12-18T19:26:04.204Z,101071.84
2022-12-18T19:28:58.398Z,101127.50
2022-12-18T19:31:45.461Z,101135.34
2022-12-18T19:34:33.693Z,101140.56
2022-12-18T19:37:21.254Z,101157.16
2022-12-18T19:40:12.409Z,101143.19
2022-12-18T19:42:59.751Z,101140.59
2022-12-18T19:45:48.293Z,101130.19
2022-12-18T19:48:35.323Z,101151.03
2022-12-18T19:51:31.866Z,101151.94
2022-12-18T19:54:20.343Z,101160.63
2022-12-18T19:57:07.239Z,101164.09
2022-12-18T19:59:54.168Z,101153.66
2022-12-18T20:02:41.242Z,101169.31
2022-12-18T20:05:32.831Z,101170.22
2022-12-18T20:08:20.071Z,101171.94
2022-12-18T20:11:06.950Z,101185.00
2022-12-18T20:13:54.095Z,101086.75
2022-12-18T20:16:29.389Z,101138.97
2022-12-18T20:19:17.681Z,101204.22
2022-12-18T20:22:04.770Z,101200.72
2022-12-18T20:24:51.623Z,101202.44
2022-12-18T20:27:38.586Z,101185.06
2022-12-18T20:30:25.868Z,101186.78
2022-12-18T20:33:12.667Z,101214.66
2022-12-18T20:35:59.578Z,101222.50
2022-12-18T20:38:46.794Z,101217.28
2022-12-18T20:41:40.648Z,101224.25
2022-12-18T20:44:32.040Z,101225.13
2022-12-18T20:47:19.271Z,101233.81
2022-12-18T20:50:06.263Z,101174.66
2022-12-18T20:52:53.450Z,101253.00
2022-12-18T20:55:40.653Z,101265.22
2022-12-18T20:58:27.538Z,101270.44
2022-12-18T21:01:44.332Z,101284.34
2022-12-18T21:04:36.103Z,101271.28
2022-12-18T21:07:23.141Z,101276.50
2022-12-18T21:10:10.163Z,101262.56
2022-12-18T21:13:03.006Z,101275.66
2022-12-18T21:15:51.509Z,101273.03
2022-12-18T21:18:38.593Z,101262.56
2022-12-18T21:21:26.815Z,101278.25
2022-12-18T21:24:15.278Z,101259.09
2022-12-18T21:27:02.353Z,101239.97
2022-12-18T21:29:49.278Z,101300.03
2022-12-18T21:32:38.636Z,101275.66
2022-12-18T21:35:26.071Z,101287.84
2022-12-18T21:38:16.120Z,101184.25
2022-12-18T21:41:03.053Z,101293.94
2022-12-18T21:43:48.775Z,101294.78
2022-12-18T21:46:35.657Z,101294.78
2022-12-18T21:49:23.945Z,101290.44
2022-12-18T21:52:13.514Z,101299.16
2022-12-18T21:55:06.686Z,101295.66
2022-12-18T21:57:56.314Z,101256.50
2022-12-18T22:00:48.356Z,101305.25
2022-12-18T22:03:35.937Z,101259.13
2022-12-18T22:06:22.915Z,101313.09
2022-12-18T22:09:09.826Z,101308.75
2022-12-18T22:11:56.782Z,101293.97
2022-12-18T22:14:43.900Z,101319.22
2022-12-18T22:17:30.791Z,101327.06
2022-12-18T22:20:17.754Z,101330.56
2022-12-18T22:23:07.291Z,101338.41
2022-12-18T22:25:55.462Z,101336.63
2022-12-18T22:28:40.604Z,101332.28
2022-12-18T22:31:28.156Z,101339.25
2022-12-18T22:34:16.119Z,101335.78
2022-12-18T22:37:07.778Z,101253.06
2022-12-18T22:39:54.757Z,101351.47
2022-12-18T22:42:42.382Z,101354.09
2022-12-18T22:45:29.615Z,101354.06
2022-12-18T22:48:16.686Z,101361.03
2022-12-18T22:51:03.482Z,101354.09
2022-12-18T22:53:50.593Z,101376.72
2022-12-18T22:56:37.583Z,101377.63
2022-12-18T22:59:25.003Z,101388.06
2022-12-18T23:02:12.598Z,101381.06
2022-12-18T23:04:59.802Z,101387.19
2022-12-18T23:07:46.860Z,101384.59
2022-12-18T23:10:33.835Z,101395.03
2022-12-18T23:13:21.246Z,101369.78
2022-12-18T23:16:08.331Z,101389.81
2022-12-18T23:18:55.963Z,101378.47
2022-12-18T23:21:43.946Z,101399.38
2022-12-18T23:24:30.971Z,101395.94
2022-12-18T23:27:19.520Z,101371.53
2022-12-18T23:30:06.311Z,101349.72
2022-12-18T23:32:56.394Z,101383.72
2022-12-18T23:35:43.425Z,101362.81
2022-12-18T23:38:30.294Z,101402.91
2022-12-18T23:41:17.663Z,101407.25
2022-12-18T23:44:05.058Z,101421.19
2022-12-18T23:46:54.909Z,101424.69
2022-12-18T23:49:41.965Z,101367.16
2022-12-18T23:52:28.780Z,101423.81
2022-12-18T23:55:15.729Z,101433.38
2022-12-18T23:58:02.547Z,101433.38
